Torbert, Louisiana
Current Conditions -  °F | °C
As of 5:35 PM on Monday 20 Oct 2014 (Local Time) from KHZR Reporting Station
Clear Clear  
Wind Chill: 73°   Ceiling: Unl
Heat Index: 73°   Visibility: 10mi
Dew Point: 56°   Wind: 6mph
Humidity: 55%   Direction: 330°NNW
Pressure: 30"   Gusts: NA
Location:  30.55°N, 91.49°W
Report Text: KHZR 202235Z AUTO 33005KT 10SM CLR 23/13 A3000 RMK AO2 T02300134
Loading
Personal Weather Stations






























Interactive Weather Map
Tropical Storm Tracking
New forecast layout! Learn more

10-Day Weather Forecast

Advertisements
Track Severe Weather on mobile